Time;durP1;ratioP1;P1;durP2;ratioP2;P2;SDS_P1;SDS_P2;PMS_P1;PMS_P2;Temp;Humidity;BMP_temperature;BMP_pressure;BME280_temperature;BME280_humidity;BME280_pressure;Samples;Min_cycle;Max_cycle;Signal;HPM_P1;HPM_P2
2022/06/30 00:00:30;;;;;;;6.45;2.03;;;17.40;98.30;;;;;;5049447;28;20378;-73
2022/06/30 00:02:57;;;;;;;6.45;2.10;;;18.00;97.90;;;;;;5047715;28;20029;-76
2022/06/30 00:05:25;;;;;;;5.75;2.08;;;19.00;97.30;;;;;;5056889;28;20045;-76
2022/06/30 00:07:52;;;;;;;3.38;1.63;;;20.10;95.40;;;;;;5044510;28;20188;-76
2022/06/30 00:10:20;;;;;;;3.80;1.55;;;20.60;94.80;;;;;;5032017;28;20102;-74
2022/06/30 00:12:47;;;;;;;3.67;1.70;;;20.80;94.60;;;;;;5028107;28;20458;-75
2022/06/30 00:15:15;;;;;;;4.47;1.63;;;21.10;94.30;;;;;;5028095;28;20102;-74
2022/06/30 00:17:42;;;;;;;5.65;1.45;;;21.50;93.80;;;;;;5053320;28;20053;-75
2022/06/30 00:20:10;;;;;;;2.83;1.23;;;21.00;93.30;;;;;;5045702;28;20033;-75
2022/06/30 00:22:37;;;;;;;3.85;1.17;;;20.80;93.20;;;;;;5044520;28;21259;-73
2022/06/30 00:25:05;;;;;;;2.50;1.15;;;20.40;94.00;;;;;;5030257;28;20073;-75
2022/06/30 00:27:33;;;;;;;3.72;1.20;;;21.00;93.10;;;;;;5043505;28;20059;-73
2022/06/30 00:30:00;;;;;;;1.65;0.82;;;21.10;93.60;;;;;;5033067;28;20093;-73
2022/06/30 00:32:28;;;;;;;4.63;0.88;;;20.80;93.60;;;;;;5033458;28;20027;-76
2022/06/30 00:34:56;;;;;;;1.30;0.80;;;20.40;93.80;;;;;;5035643;28;20032;-75
2022/06/30 00:37:23;;;;;;;4.07;0.80;;;20.10;94.80;;;;;;5017325;28;20092;-74
2022/06/30 00:39:51;;;;;;;2.42;0.93;;;20.00;94.40;;;;;;5030137;28;20021;-74
2022/06/30 00:42:18;;;;;;;5.40;1.42;;;19.80;94.80;;;;;;5032319;28;20382;-75
2022/06/30 00:44:46;;;;;;;3.88;1.05;;;19.80;94.80;;;;;;5034205;28;20064;-83
2022/06/30 00:47:13;;;;;;;1.30;1.02;;;19.60;94.60;;;;;;5035407;28;20414;-77
2022/06/30 00:49:40;;;;;;;2.00;0.82;;;19.70;94.60;;;;;;5037369;28;20037;-77
2022/06/30 00:52:11;;;;;;;2.33;1.17;;;20.70;93.80;;;;;;5043432;28;20037;-79
2022/06/30 00:54:40;;;;;;;1.88;0.50;;;22.00;92.80;;;;;;5044356;28;20118;-78
2022/06/30 00:57:10;;;;;;;1.58;0.43;;;23.00;90.60;;;;;;5020778;28;20045;-80
2022/06/30 00:59:41;;;;;;;2.15;0.80;;;23.20;90.90;;;;;;5034461;28;20029;-79
2022/06/30 01:02:09;;;;;;;2.55;0.90;;;23.00;90.30;;;;;;5031787;28;20162;-75
2022/06/30 01:04:38;;;;;;;2.20;1.23;;;22.50;90.60;;;;;;5033875;28;20069;-75
2022/06/30 01:07:07;;;;;;;3.45;1.08;;;21.90;91.00;;;;;;5034071;28;20056;-72
2022/06/30 01:12:44;;;;;;;1.35;0.57;;;21.40;91.10;;;;;;5035991;28;20044;-74
2022/06/30 01:15:14;;;;;;;1.67;0.85;;;21.10;91.30;;;;;;5034915;28;20033;-73
2022/06/30 01:17:42;;;;;;;1.25;0.55;;;20.80;91.60;;;;;;5029959;28;20045;-74
2022/06/30 01:20:10;;;;;;;4.50;0.80;;;20.50;92.10;;;;;;5036589;28;20018;-74
2022/06/30 01:22:38;;;;;;;1.15;0.60;;;20.20;91.80;;;;;;5033305;28;20048;-73
2022/06/30 01:25:07;;;;;;;2.20;1.30;;;20.10;92.30;;;;;;5031082;28;20047;-74
2022/06/30 01:27:35;;;;;;;1.88;0.63;;;19.90;92.50;;;;;;5027151;28;20044;-73
2022/06/30 01:30:02;;;;;;;0.85;0.55;;;19.80;90.30;;;;;;5031343;28;21015;-73
2022/06/30 01:32:30;;;;;;;1.58;0.75;;;19.70;85.10;;;;;;5030783;28;20028;-74
2022/06/30 01:34:58;;;;;;;6.32;3.03;;;19.50;84.40;;;;;;5033174;28;20418;-74
2022/06/30 01:37:26;;;;;;;2.47;1.48;;;19.40;84.30;;;;;;5032475;28;20168;-75
2022/06/30 01:39:54;;;;;;;3.97;2.60;;;19.30;84.20;;;;;;5044083;28;20129;-75
2022/06/30 01:42:21;;;;;;;1.67;0.50;;;19.30;84.40;;;;;;5031896;28;20025;-75
2022/06/30 01:44:49;;;;;;;3.80;1.80;;;19.30;84.30;;;;;;5058631;28;20744;-73
2022/06/30 01:47:17;;;;;;;6.65;4.55;;;19.30;84.30;;;;;;5038493;28;20436;-74
2022/06/30 01:49:44;;;;;;;6.05;3.63;;;19.20;83.20;;;;;;5033107;28;20028;-72
2022/06/30 01:52:18;;;;;;;3.05;1.80;;;19.00;85.20;;;;;;5047851;28;20478;-72
2022/06/30 01:54:45;;;;;;;5.95;3.38;;;19.00;85.50;;;;;;5045759;28;20033;-73
2022/06/30 01:57:13;;;;;;;6.80;3.42;;;18.80;85.30;;;;;;5042895;28;20075;-71
2022/06/30 01:59:40;;;;;;;8.02;4.32;;;18.80;85.20;;;;;;5043057;28;20048;-72
2022/06/30 02:02:08;;;;;;;2.63;1.23;;;19.00;84.70;;;;;;5039787;28;20033;-71
2022/06/30 02:04:47;;;;;;;6.68;3.05;;;19.10;84.20;;;;;;5046562;28;22739;-72
2022/06/30 02:07:15;;;;;;;2.83;1.52;;;19.40;84.60;;;;;;5033417;28;20021;-72
2022/06/30 02:09:43;;;;;;;4.55;2.25;;;20.00;84.70;;;;;;5034208;28;20391;-72
2022/06/30 02:14:57;;;;;;;8.10;2.05;;;20.20;82.40;;;;;;5032080;28;20043;-72
2022/06/30 02:17:24;;;;;;;3.88;1.40;;;20.00;84.10;;;;;;5036177;28;20071;-75
2022/06/30 02:19:53;;;;;;;8.60;5.57;;;20.10;83.60;;;;;;5036170;28;20065;-72
2022/06/30 02:22:20;;;;;;;4.22;1.90;;;20.20;83.60;;;;;;5047056;28;20024;-71
2022/06/30 02:24:48;;;;;;;4.75;2.17;;;20.60;84.30;;;;;;5049074;28;20166;-71
2022/06/30 02:27:15;;;;;;;5.60;2.15;;;21.10;83.30;;;;;;5047687;28;20123;-72
2022/06/30 02:29:42;;;;;;;1.13;0.30;;;21.60;82.70;;;;;;5060687;28;20029;-72
2022/06/30 02:32:10;;;;;;;3.00;1.23;;;21.70;81.50;;;;;;5050152;28;20115;-71
2022/06/30 02:34:37;;;;;;;9.05;4.95;;;21.80;82.50;;;;;;5039096;28;20773;-71
2022/06/30 02:37:05;;;;;;;5.30;3.65;;;21.90;82.90;;;;;;5048516;28;20197;-72
2022/06/30 02:39:32;;;;;;;0.85;0.38;;;21.60;82.00;;;;;;5027207;28;20551;-72
2022/06/30 02:41:59;;;;;;;1.48;0.60;;;21.30;84.20;;;;;;5043935;28;20033;-72
2022/06/30 02:44:26;;;;;;;1.20;1.00;;;21.10;83.30;;;;;;5046384;28;20025;-73
2022/06/30 02:46:54;;;;;;;3.03;0.93;;;20.90;84.70;;;;;;5032817;28;20041;-73
2022/06/30 02:49:22;;;;;;;3.90;0.77;;;20.70;83.80;;;;;;5051257;28;20029;-72
2022/06/30 02:51:51;;;;;;;1.20;1.10;;;20.50;84.40;;;;;;5049483;28;20037;-73
2022/06/30 02:54:19;;;;;;;0.50;0.50;;;20.30;83.80;;;;;;5042925;28;20025;-72
2022/06/30 02:56:47;;;;;;;0.50;0.40;;;20.10;84.90;;;;;;5035043;28;20481;-72
2022/06/30 02:59:15;;;;;;;0.82;0.35;;;20.00;84.40;;;;;;5060282;28;20032;-72
2022/06/30 03:01:42;;;;;;;0.52;0.30;;;19.80;84.30;;;;;;5036639;28;20494;-71
2022/06/30 03:04:09;;;;;;;0.93;0.50;;;19.90;84.90;;;;;;5050854;28;20469;-72
2022/06/30 03:06:37;;;;;;;0.60;0.30;;;20.10;85.60;;;;;;5040508;28;20040;-72
2022/06/30 03:09:04;;;;;;;0.43;0.25;;;20.30;85.70;;;;;;5038573;28;20021;-71
2022/06/30 03:11:32;;;;;;;0.98;0.50;;;20.40;85.50;;;;;;5040427;28;20152;-73
2022/06/30 03:14:00;;;;;;;1.30;0.40;;;20.30;86.20;;;;;;5037846;28;20033;-72
2022/06/30 03:16:27;;;;;;;1.63;0.30;;;20.10;86.10;;;;;;5027120;28;20505;-71
2022/06/30 03:18:54;;;;;;;0.50;0.20;;;19.90;86.60;;;;;;5037169;28;20021;-73
2022/06/30 03:21:22;;;;;;;0.70;0.55;;;19.70;86.90;;;;;;5042856;28;20064;-71
2022/06/30 03:23:49;;;;;;;1.02;0.35;;;19.60;87.50;;;;;;5043915;28;20029;-73
2022/06/30 03:26:17;;;;;;;2.75;0.50;;;19.50;88.10;;;;;;5037257;28;20570;-73
2022/06/30 03:28:44;;;;;;;0.35;0.28;;;19.50;87.80;;;;;;5027797;28;20034;-73
2022/06/30 03:31:11;;;;;;;1.77;0.65;;;19.40;87.40;;;;;;5029987;28;20028;-74
2022/06/30 03:33:39;;;;;;;1.90;0.63;;;19.30;87.80;;;;;;5029462;28;20148;-74
2022/06/30 03:36:06;;;;;;;2.17;0.30;;;19.30;87.50;;;;;;5040752;28;20025;-73
2022/06/30 03:38:33;;;;;;;0.85;0.40;;;19.20;87.60;;;;;;5048314;28;20029;-73
2022/06/30 03:41:01;;;;;;;0.95;0.50;;;19.20;87.50;;;;;;5047371;28;20463;-73
2022/06/30 03:43:28;;;;;;;0.88;0.30;;;19.00;87.20;;;;;;5035200;28;20136;-71
2022/06/30 03:45:56;;;;;;;0.40;0.20;;;18.90;88.00;;;;;;5043446;28;20052;-72
2022/06/30 03:48:23;;;;;;;0.50;0.38;;;18.80;86.80;;;;;;5031583;28;20025;-73
2022/06/30 03:50:50;;;;;;;2.53;0.40;;;18.70;88.20;;;;;;5035544;28;20087;-73
2022/06/30 03:53:17;;;;;;;0.77;0.30;;;18.70;88.10;;;;;;5036627;28;20088;-73
2022/06/30 03:55:45;;;;;;;0.77;0.30;;;18.60;87.00;;;;;;5037766;28;20027;-73
2022/06/30 03:58:13;;;;;;;1.38;0.30;;;18.70;86.80;;;;;;5040004;28;20098;-73
2022/06/30 04:00:40;;;;;;;2.05;0.40;;;18.60;86.90;;;;;;5040867;28;20040;-74
2022/06/30 04:03:08;;;;;;;2.53;1.33;;;18.60;88.40;;;;;;5040661;28;20402;-72
2022/06/30 04:05:35;;;;;;;3.75;1.67;;;18.60;89.20;;;;;;5048731;28;20036;-73
2022/06/30 04:08:03;;;;;;;3.00;1.85;;;18.50;87.90;;;;;;5049510;28;20025;-74
2022/06/30 04:10:30;;;;;;;1.80;1.45;;;18.50;86.60;;;;;;5057414;28;20037;-74
2022/06/30 04:12:57;;;;;;;1.27;0.57;;;18.50;86.40;;;;;;5040032;28;20116;-71
2022/06/30 04:15:25;;;;;;;2.28;0.45;;;18.40;85.80;;;;;;5040820;28;20033;-72
2022/06/30 04:17:52;;;;;;;1.58;0.38;;;18.50;85.10;;;;;;5023319;28;20033;-73
2022/06/30 04:20:19;;;;;;;0.35;0.20;;;18.50;85.90;;;;;;5036362;28;20025;-73
2022/06/30 04:22:52;;;;;;;1.75;0.30;;;18.40;86.10;;;;;;5048299;28;20035;-72
2022/06/30 04:25:20;;;;;;;3.08;0.45;;;18.30;86.40;;;;;;5047531;28;20045;-74
2022/06/30 04:27:52;;;;;;;0.82;0.30;;;18.30;86.30;;;;;;5048495;28;20034;-74
2022/06/30 04:33:06;;;;;;;;;;;18.10;88.10;;;;;;5061668;28;20040;-74
2022/06/30 04:35:33;;;;;;;1.83;0.38;;;18.20;87.80;;;;;;5047220;28;19917;-73
2022/06/30 04:38:03;;;;;;;0.80;0.25;;;18.20;88.30;;;;;;5050443;28;20477;-74
2022/06/30 04:43:16;;;;;;;1.50;0.30;;;18.10;89.20;;;;;;5032940;28;20545;-73
2022/06/30 04:45:43;;;;;;;0.30;0.20;;;18.20;89.40;;;;;;5039327;28;20060;-73
2022/06/30 04:48:11;;;;;;;1.13;0.20;;;18.20;88.80;;;;;;5049843;28;20039;-73
2022/06/30 04:50:42;;;;;;;0.57;0.30;;;18.20;89.20;;;;;;5052859;28;20477;-73
2022/06/30 04:53:09;;;;;;;4.55;0.73;;;18.10;89.40;;;;;;5056711;28;20052;-73
2022/06/30 04:55:39;;;;;;;0.60;0.60;;;18.10;89.10;;;;;;5043689;28;20068;-73
2022/06/30 04:58:06;;;;;;;0.90;0.30;;;18.20;88.30;;;;;;5035114;28;20032;-72
2022/06/30 05:00:34;;;;;;;2.45;0.38;;;18.10;89.00;;;;;;5041681;28;20035;-73
2022/06/30 05:03:01;;;;;;;0.90;0.40;;;18.20;89.00;;;;;;5057586;28;20120;-73
2022/06/30 05:05:28;;;;;;;1.00;0.30;;;18.20;90.00;;;;;;5032762;28;20037;-73
2022/06/30 05:07:56;;;;;;;0.80;0.30;;;18.20;89.10;;;;;;5037263;28;20028;-72
2022/06/30 05:10:23;;;;;;;1.23;0.55;;;18.20;89.40;;;;;;5050863;28;20036;-73
2022/06/30 05:12:50;;;;;;;1.95;0.60;;;18.10;89.70;;;;;;5045239;28;20029;-71
2022/06/30 05:15:18;;;;;;;2.00;0.40;;;18.00;89.20;;;;;;5035970;28;20025;-72
2022/06/30 05:17:45;;;;;;;7.35;0.50;;;17.90;90.00;;;;;;5057646;28;20025;-73
2022/06/30 05:20:13;;;;;;;3.38;0.30;;;17.80;90.30;;;;;;5042289;28;20125;-74
2022/06/30 05:22:40;;;;;;;0.60;0.40;;;17.80;89.80;;;;;;5052314;28;20496;-73
2022/06/30 05:27:54;;;;;;;1.10;0.70;;;17.90;90.10;;;;;;5037513;28;20171;-74
2022/06/30 05:30:21;;;;;;;1.52;0.50;;;17.80;90.40;;;;;;5037022;28;20033;-71
2022/06/30 05:32:50;;;;;;;4.35;0.57;;;17.80;90.40;;;;;;5048223;28;20029;-72
2022/06/30 05:35:17;;;;;;;0.32;0.32;;;17.80;90.10;;;;;;5052097;28;20028;-72
2022/06/30 05:37:44;;;;;;;0.70;0.40;;;17.70;90.10;;;;;;5049626;28;20028;-73
2022/06/30 05:40:13;;;;;;;1.35;0.50;;;17.70;90.10;;;;;;5040479;28;20029;-73
2022/06/30 05:42:40;;;;;;;3.70;0.40;;;17.70;90.50;;;;;;5048831;28;20033;-71
2022/06/30 05:45:08;;;;;;;0.73;0.50;;;17.70;90.50;;;;;;5049114;28;20427;-72
2022/06/30 05:47:50;;;;;;;2.88;0.60;;;17.60;90.80;;;;;;5048151;28;20379;-71
2022/06/30 05:50:22;;;;;;;1.40;1.23;;;17.70;90.50;;;;;;5030960;28;20151;-71
2022/06/30 05:52:53;;;;;;;1.80;0.73;;;17.60;90.40;;;;;;5041525;28;20059;-71
2022/06/30 05:55:20;;;;;;;0.98;0.45;;;17.70;90.40;;;;;;5046345;28;20025;-72
2022/06/30 05:57:57;;;;;;;2.92;1.00;;;17.70;90.50;;;;;;5053990;28;20028;-72
2022/06/30 06:00:27;;;;;;;1.92;1.23;;;17.70;90.50;;;;;;5044103;28;20424;-70
2022/06/30 06:02:54;;;;;;;7.15;4.07;;;17.60;90.90;;;;;;5045185;28;20033;-72
2022/06/30 06:05:23;;;;;;;2.13;1.27;;;17.50;91.00;;;;;;5046268;28;20044;-72
2022/06/30 06:07:51;;;;;;;1.45;0.52;;;17.40;90.80;;;;;;5046423;28;20045;-72
2022/06/30 06:10:19;;;;;;;0.88;0.43;;;17.40;90.30;;;;;;5048102;28;20061;-72
2022/06/30 06:12:47;;;;;;;0.50;0.20;;;17.20;88.80;;;;;;5036539;28;20152;-73
2022/06/30 06:15:15;;;;;;;3.08;0.40;;;17.20;87.30;;;;;;5037093;28;20034;-72
2022/06/30 06:17:49;;;;;;;4.93;0.63;;;17.20;86.40;;;;;;5047839;28;20119;-72
2022/06/30 06:20:18;;;;;;;1.17;0.45;;;17.10;86.30;;;;;;5047154;28;20574;-74
2022/06/30 06:22:46;;;;;;;1.92;0.50;;;17.10;86.30;;;;;;5049058;28;20049;-74
2022/06/30 06:25:15;;;;;;;1.15;0.40;;;17.10;86.10;;;;;;5046706;28;20072;-72
2022/06/30 06:29:05;;;;;;;0.40;0.32;;;17.00;86.30;;;;;;5046242;28;20966;-74
2022/06/30 06:30:30;;;;;;;1.40;0.40;;;17.00;86.40;;;;;;5039625;28;20040;-70
2022/06/30 06:32:57;;;;;;;0.80;0.40;;;16.90;86.70;;;;;;5052552;28;20054;-72
2022/06/30 06:35:24;;;;;;;3.20;0.55;;;16.90;86.90;;;;;;5048853;28;20029;-71
2022/06/30 06:37:52;;;;;;;2.33;0.30;;;16.90;87.10;;;;;;5037238;28;20036;-72
2022/06/30 06:40:19;;;;;;;2.97;0.68;;;16.90;86.80;;;;;;5039433;28;20033;-72
2022/06/30 06:42:46;;;;;;;1.30;0.50;;;16.80;86.90;;;;;;5052062;28;20024;-73
2022/06/30 06:45:14;;;;;;;0.93;0.50;;;16.70;86.30;;;;;;5047587;28;20041;-73
2022/06/30 06:47:42;;;;;;;1.17;0.40;;;16.70;86.10;;;;;;5041181;28;20040;-74
2022/06/30 06:50:09;;;;;;;6.00;1.35;;;16.50;85.80;;;;;;5038602;28;20507;-74
2022/06/30 06:52:37;;;;;;;3.45;0.70;;;16.50;85.90;;;;;;5053600;28;20044;-73
2022/06/30 06:55:05;;;;;;;3.00;1.15;;;16.40;85.80;;;;;;5045768;28;20490;-72
2022/06/30 06:57:40;;;;;;;2.40;0.75;;;16.40;86.00;;;;;;5053341;28;20048;-73
2022/06/30 07:00:12;;;;;;;2.00;0.90;;;16.40;85.80;;;;;;5038533;28;20041;-71
2022/06/30 07:02:43;;;;;;;3.83;1.00;;;16.30;85.90;;;;;;5042520;28;20086;-72
2022/06/30 07:05:10;;;;;;;1.80;0.80;;;16.10;86.50;;;;;;5033706;28;20060;-73
2022/06/30 07:07:38;;;;;;;2.97;1.20;;;15.90;86.80;;;;;;5043855;28;20040;-75
2022/06/30 07:10:07;;;;;;;2.75;1.20;;;15.70;87.30;;;;;;5049872;28;20108;-72
2022/06/30 07:12:35;;;;;;;2.10;1.20;;;15.50;87.70;;;;;;5044938;28;20064;-72
2022/06/30 07:15:04;;;;;;;2.25;1.10;;;15.30;88.50;;;;;;5032356;28;20401;-73
2022/06/30 07:17:40;;;;;;;2.40;1.50;;;15.20;88.50;;;;;;5040447;28;20033;-72
2022/06/30 07:20:08;;;;;;;3.05;1.42;;;15.00;88.80;;;;;;5039068;28;20037;-72
2022/06/30 07:22:36;;;;;;;1.92;1.45;;;15.00;90.00;;;;;;5035829;28;20066;-72
2022/06/30 07:25:07;;;;;;;3.75;1.80;;;15.00;90.10;;;;;;5024269;28;20044;-74
2022/06/30 07:27:35;;;;;;;5.93;1.52;;;14.90;90.40;;;;;;5036679;28;20028;-73
2022/06/30 07:30:04;;;;;;;2.42;1.27;;;14.80;90.80;;;;;;5034362;28;20033;-73
2022/06/30 07:32:31;;;;;;;1.52;0.95;;;14.80;91.20;;;;;;5031106;28;20098;-75
2022/06/30 07:34:59;;;;;;;3.75;1.60;;;14.70;91.50;;;;;;5036823;28;20035;-75
2022/06/30 07:37:26;;;;;;;4.43;1.40;;;14.70;91.50;;;;;;5029695;28;20356;-75
2022/06/30 07:39:53;;;;;;;4.15;1.08;;;14.60;91.00;;;;;;5043404;28;20036;-75
2022/06/30 07:42:21;;;;;;;1.70;1.10;;;14.50;90.70;;;;;;5035731;28;20451;-76
2022/06/30 07:44:48;;;;;;;4.60;1.60;;;14.50;90.60;;;;;;5034378;28;20064;-76
2022/06/30 07:47:16;;;;;;;3.35;1.30;;;14.40;91.10;;;;;;5041896;28;20060;-77
2022/06/30 07:49:44;;;;;;;1.70;1.27;;;14.40;91.90;;;;;;5033689;28;20028;-77
2022/06/30 07:52:11;;;;;;;3.78;1.75;;;14.40;91.10;;;;;;5046633;28;20094;-76
2022/06/30 07:54:38;;;;;;;4.18;2.75;;;14.30;91.70;;;;;;5043811;28;20024;-74
2022/06/30 07:57:06;;;;;;;3.47;2.50;;;14.30;91.40;;;;;;5041387;28;20847;-75
2022/06/30 07:59:33;;;;;;;3.15;2.38;;;14.20;91.60;;;;;;5039603;28;20488;-74
2022/06/30 08:02:01;;;;;;;6.57;2.08;;;14.20;92.20;;;;;;5047454;28;20037;-75
2022/06/30 08:04:28;;;;;;;6.20;2.50;;;14.20;92.30;;;;;;5054690;28;20021;-73
2022/06/30 08:06:56;;;;;;;2.88;1.88;;;14.10;92.90;;;;;;5037552;28;20032;-75
2022/06/30 08:09:23;;;;;;;4.07;2.30;;;14.10;92.90;;;;;;5047057;28;20029;-75
2022/06/30 08:11:53;;;;;;;5.07;1.90;;;14.10;93.50;;;;;;5046364;28;20518;-74
2022/06/30 08:14:21;;;;;;;4.28;2.10;;;14.00;93.70;;;;;;5047668;28;20495;-72
2022/06/30 08:16:49;;;;;;;3.85;2.40;;;13.90;93.80;;;;;;5037034;28;20029;-74
2022/06/30 08:19:19;;;;;;;4.40;1.90;;;13.90;93.90;;;;;;5040189;28;20145;-73
2022/06/30 08:21:47;;;;;;;5.15;3.28;;;13.90;94.20;;;;;;5050344;28;20111;-74
2022/06/30 08:24:15;;;;;;;5.38;3.10;;;13.80;94.40;;;;;;5047454;28;20431;-77
2022/06/30 08:26:42;;;;;;;5.82;3.47;;;13.80;94.50;;;;;;5036991;28;20040;-74
2022/06/30 08:29:12;;;;;;;5.65;3.78;;;13.70;94.50;;;;;;5039252;28;20057;-77
2022/06/30 08:31:41;;;;;;;4.72;3.13;;;13.70;94.80;;;;;;5026267;28;20086;-74
2022/06/30 08:34:08;;;;;;;7.78;4.32;;;13.70;94.90;;;;;;5042843;28;20025;-75
2022/06/30 08:36:35;;;;;;;6.32;4.03;;;13.60;94.90;;;;;;5039427;28;20100;-73
2022/06/30 08:39:03;;;;;;;11.77;7.15;;;13.60;95.30;;;;;;5039589;28;20120;-75
2022/06/30 08:44:22;;;;;;;15.68;9.13;;;13.50;95.50;;;;;;5034684;28;20605;-72
2022/06/30 08:46:49;;;;;;;14.15;7.80;;;13.50;95.10;;;;;;5050040;28;20451;-71
2022/06/30 08:49:17;;;;;;;13.32;8.30;;;13.50;95.10;;;;;;5038366;28;20052;-75
2022/06/30 08:51:46;;;;;;;9.43;6.75;;;13.40;95.30;;;;;;5031516;28;20061;-76
2022/06/30 08:54:20;;;;;;;8.43;6.28;;;13.40;95.30;;;;;;5025390;28;20037;-75
2022/06/30 08:56:48;;;;;;;10.48;5.97;;;13.40;95.20;;;;;;5049035;28;20025;-74
2022/06/30 08:59:16;;;;;;;7.00;4.63;;;13.40;95.00;;;;;;5047456;28;20029;-77
2022/06/30 09:01:43;;;;;;;8.38;4.20;;;13.40;95.00;;;;;;5033813;28;20370;-74
2022/06/30 09:04:14;;;;;;;7.82;3.83;;;13.40;95.10;;;;;;5048254;28;20041;-73
2022/06/30 09:06:45;;;;;;;5.25;2.92;;;13.30;95.00;;;;;;5048784;28;20136;-74
2022/06/30 09:09:13;;;;;;;3.38;2.33;;;13.30;95.00;;;;;;5055982;28;20043;-76
2022/06/30 09:11:52;;;;;;;5.75;3.55;;;13.30;95.10;;;;;;5041053;28;20070;-76
2022/06/30 09:14:40;;;;;;;7.53;3.10;;;13.30;95.00;;;;;;5034691;28;20029;-77
2022/06/30 09:17:16;;;;;;;4.63;2.97;;;13.30;94.80;;;;;;5043926;28;20178;-75
2022/06/30 09:20:12;;;;;;;4.95;2.83;;;13.30;94.80;;;;;;5034359;28;20074;-76
2022/06/30 09:22:42;;;;;;;5.28;3.35;;;13.30;94.60;;;;;;5035971;28;20476;-76
2022/06/30 09:25:10;;;;;;;4.63;2.42;;;13.20;94.60;;;;;;5050436;28;20125;-74
2022/06/30 09:27:40;;;;;;;3.50;1.73;;;13.20;94.60;;;;;;5048929;28;20152;-80
2022/06/30 09:30:12;;;;;;;3.28;1.85;;;13.20;94.40;;;;;;5047621;28;20382;-78
2022/06/30 09:32:50;;;;;;;4.47;3.03;;;13.20;94.60;;;;;;5033817;28;20020;-76
2022/06/30 09:35:19;;;;;;;7.97;2.22;;;13.20;94.80;;;;;;5038560;28;20600;-77
2022/06/30 09:37:56;;;;;;;3.03;1.52;;;13.20;94.90;;;;;;5042954;28;20036;-78
2022/06/30 09:40:37;;;;;;;3.92;2.20;;;13.20;95.10;;;;;;5049706;28;20049;-78
2022/06/30 09:43:06;;;;;;;4.45;1.88;;;13.20;94.70;;;;;;5052077;28;20039;-76
2022/06/30 09:45:40;;;;;;;4.68;1.73;;;13.20;94.70;;;;;;5041754;28;20075;-75
2022/06/30 09:48:11;;;;;;;7.78;1.40;;;13.20;94.70;;;;;;5046184;28;20033;-75
2022/06/30 09:50:39;;;;;;;2.47;0.95;;;13.20;94.60;;;;;;5050917;28;20596;-75
2022/06/30 09:53:11;;;;;;;4.40;1.80;;;13.10;94.60;;;;;;5047876;28;20049;-74
2022/06/30 09:55:42;;;;;;;1.40;0.95;;;13.10;94.60;;;;;;5042456;28;20035;-74
2022/06/30 09:58:10;;;;;;;4.82;1.02;;;13.10;94.70;;;;;;5049235;28;20375;-74
2022/06/30 10:00:51;;;;;;;3.17;0.90;;;13.10;95.00;;;;;;5049520;28;20083;-73
2022/06/30 10:03:22;;;;;;;2.72;0.80;;;13.10;94.90;;;;;;5045893;28;20041;-74
2022/06/30 10:06:06;;;;;;;3.38;1.60;;;13.10;95.00;;;;;;5039470;28;20037;-74
2022/06/30 10:08:34;;;;;;;5.10;1.42;;;13.10;95.20;;;;;;5043958;28;20028;-74
2022/06/30 10:11:02;;;;;;;7.13;1.80;;;13.00;95.20;;;;;;5047639;28;20114;-74
2022/06/30 10:13:34;;;;;;;3.67;1.55;;;13.00;95.30;;;;;;5047642;28;20025;-73
2022/06/30 10:16:04;;;;;;;2.97;1.92;;;13.00;95.40;;;;;;5034943;28;20120;-74
2022/06/30 10:18:36;;;;;;;4.30;1.88;;;13.00;95.70;;;;;;5041997;28;20021;-76
2022/06/30 10:21:04;;;;;;;2.08;1.52;;;12.90;95.80;;;;;;5031090;28;20407;-72
2022/06/30 10:23:33;;;;;;;7.32;2.33;;;12.90;95.90;;;;;;5036649;28;20024;-73
2022/06/30 10:26:02;;;;;;;4.03;2.00;;;12.90;96.10;;;;;;5047046;28;20032;-73
2022/06/30 10:28:30;;;;;;;2.83;1.75;;;12.90;96.30;;;;;;5056550;28;20100;-75
2022/06/30 10:31:18;;;;;;;5.30;2.50;;;12.80;96.50;;;;;;5044038;28;20054;-74
2022/06/30 10:34:08;;;;;;;5.05;2.05;;;12.80;96.90;;;;;;5057423;28;20089;-75
2022/06/30 10:37:05;;;;;;;4.20;2.08;;;12.80;97.30;;;;;;5044241;28;20045;-75
2022/06/30 10:39:44;;;;;;;2.85;1.30;;;12.70;97.90;;;;;;5028401;28;20061;-74
2022/06/30 10:42:43;;;;;;;2.78;1.50;;;12.70;98.20;;;;;;5049412;28;20036;-76
2022/06/30 10:45:29;;;;;;;2.58;1.30;;;12.70;98.40;;;;;;5040692;28;20413;-75
2022/06/30 10:48:02;;;;;;;1.48;0.93;;;12.70;98.50;;;;;;5039009;28;20028;-73
2022/06/30 10:50:39;;;;;;;3.55;1.70;;;12.60;98.40;;;;;;5041314;28;20037;-76
2022/06/30 10:53:08;;;;;;;2.45;1.10;;;12.70;98.30;;;;;;5036627;28;20041;-73
2022/06/30 10:55:48;;;;;;;2.95;1.50;;;12.60;98.30;;;;;;5027986;28;20037;-73
2022/06/30 10:58:15;;;;;;;1.88;1.63;;;12.60;98.30;;;;;;5028831;28;20052;-75
2022/06/30 11:00:51;;;;;;;2.38;1.38;;;12.60;98.40;;;;;;5029255;28;20017;-73
2022/06/30 11:03:37;;;;;;;4.72;0.93;;;12.70;98.40;;;;;;5031923;28;20029;-73
2022/06/30 11:06:09;;;;;;;1.98;1.33;;;12.60;98.50;;;;;;5043472;28;20041;-72
2022/06/30 11:08:39;;;;;;;1.88;1.20;;;12.60;98.50;;;;;;5040452;28;20498;-75
2022/06/30 11:11:25;;;;;;;2.63;1.05;;;12.60;98.60;;;;;;5043888;28;20490;-75
2022/06/30 11:14:02;;;;;;;4.65;1.58;;;12.60;98.70;;;;;;5048291;28;20536;-73
2022/06/30 11:16:37;;;;;;;1.77;1.13;;;12.60;98.80;;;;;;5049271;28;20032;-73
2022/06/30 11:19:13;;;;;;;3.40;1.10;;;12.50;98.90;;;;;;5034144;28;20044;-74
2022/06/30 11:21:46;;;;;;;3.08;1.50;;;12.50;98.90;;;;;;5044090;28;20025;-73
2022/06/30 11:24:19;;;;;;;5.88;1.38;;;12.50;99.00;;;;;;5048773;28;20386;-73
2022/06/30 11:29:32;;;;;;;;;;;12.40;99.10;;;;;;5034837;28;20083;-73
2022/06/30 11:32:01;;;;;;;3.50;1.55;;;12.40;99.10;;;;;;5046093;28;19913;-73
2022/06/30 11:34:28;;;;;;;3.75;1.75;;;12.40;99.30;;;;;;5039660;28;20136;-74
2022/06/30 11:36:56;;;;;;;2.53;1.70;;;12.30;99.40;;;;;;5039782;28;20054;-74
2022/06/30 11:39:23;;;;;;;2.65;1.10;;;12.30;99.50;;;;;;5037908;28;20333;-74
2022/06/30 11:42:06;;;;;;;3.25;1.77;;;12.30;99.60;;;;;;5032098;28;20033;-72
2022/06/30 11:44:41;;;;;;;3.28;1.80;;;12.30;99.90;;;;;;5048609;28;20032;-73
2022/06/30 11:47:16;;;;;;;2.22;1.92;;;12.30;99.90;;;;;;5048813;28;20170;-74
2022/06/30 11:49:46;;;;;;;1.83;1.48;;;12.30;99.90;;;;;;5028884;28;20518;-73
2022/06/30 11:52:17;;;;;;;6.15;1.63;;;12.30;99.90;;;;;;5045303;28;20164;-73
2022/06/30 11:54:53;;;;;;;2.47;1.70;;;12.30;99.90;;;;;;5046866;28;20029;-74
2022/06/30 11:57:23;;;;;;;2.97;1.20;;;12.20;99.90;;;;;;5048790;28;20048;-74
2022/06/30 11:59:53;;;;;;;6.18;2.40;;;12.20;99.90;;;;;;5037082;28;20052;-74
2022/06/30 12:02:21;;;;;;;5.50;3.10;;;12.20;99.90;;;;;;5047552;28;20108;-73
2022/06/30 12:04:58;;;;;;;5.13;3.17;;;12.20;99.90;;;;;;5038151;28;20033;-72
2022/06/30 12:07:27;;;;;;;7.18;3.22;;;12.20;99.90;;;;;;5037657;28;20120;-74
2022/06/30 12:09:56;;;;;;;3.05;2.63;;;12.20;99.90;;;;;;5034277;28;20022;-74
2022/06/30 12:12:28;;;;;;;4.97;2.05;;;12.10;99.90;;;;;;5045737;28;20037;-74
2022/06/30 12:15:03;;;;;;;3.10;1.55;;;12.20;99.90;;;;;;5037632;28;20505;-74
2022/06/30 12:17:42;;;;;;;3.25;2.35;;;12.20;99.90;;;;;;5032679;28;20060;-73
2022/06/30 12:20:12;;;;;;;2.85;1.35;;;12.10;99.90;;;;;;5035963;28;20033;-72
2022/06/30 12:22:42;;;;;;;2.90;1.73;;;12.10;99.90;;;;;;5048200;28;20033;-74
2022/06/30 12:25:10;;;;;;;3.25;1.40;;;12.10;99.90;;;;;;5046363;28;20561;-74
2022/06/30 12:27:42;;;;;;;2.15;1.63;;;12.10;99.90;;;;;;5039081;28;20094;-72
2022/06/30 12:30:12;;;;;;;5.43;2.55;;;12.10;99.90;;;;;;5048354;28;20194;-73
2022/06/30 12:32:40;;;;;;;2.78;1.38;;;12.10;99.90;;;;;;5058784;28;20021;-73
2022/06/30 12:35:14;;;;;;;4.30;1.60;;;12.10;99.90;;;;;;5045340;28;20029;-73
2022/06/30 12:37:43;;;;;;;5.00;3.38;;;12.10;99.90;;;;;;5052010;28;20033;-71
2022/06/30 12:40:12;;;;;;;6.22;3.10;;;12.10;99.90;;;;;;5040278;28;20055;-73
2022/06/30 12:42:49;;;;;;;3.35;2.22;;;12.10;99.90;;;;;;5049797;28;20024;-73
2022/06/30 12:45:36;;;;;;;4.22;3.22;;;12.10;99.90;;;;;;5051204;28;20029;-73
2022/06/30 12:48:05;;;;;;;5.15;2.30;;;12.10;99.90;;;;;;5037919;28;20759;-73
2022/06/30 12:50:33;;;;;;;4.07;2.20;;;12.10;99.90;;;;;;5039180;28;20552;-74
2022/06/30 12:53:24;;;;;;;3.83;2.28;;;12.10;99.90;;;;;;5033310;28;20140;-72
2022/06/30 12:56:00;;;;;;;3.55;2.17;;;12.10;99.90;;;;;;5030684;28;20028;-75
2022/06/30 12:58:42;;;;;;;3.60;1.42;;;12.10;99.90;;;;;;5034857;28;20936;-72
2022/06/30 13:01:12;;;;;;;2.35;1.48;;;12.10;99.90;;;;;;5043096;28;20048;-73
2022/06/30 13:04:12;;;;;;;4.88;1.80;;;12.10;99.90;;;;;;5044383;28;20084;-75
2022/06/30 13:06:41;;;;;;;2.83;2.17;;;12.10;99.90;;;;;;5041397;28;20056;-74
2022/06/30 13:09:11;;;;;;;3.05;2.38;;;12.10;99.90;;;;;;5039302;28;20041;-73
2022/06/30 13:11:48;;;;;;;4.18;2.20;;;12.10;99.90;;;;;;5035396;28;20034;-74
2022/06/30 13:14:19;;;;;;;3.72;2.78;;;12.10;99.90;;;;;;5046521;28;20032;-72
2022/06/30 13:16:48;;;;;;;5.32;3.13;;;12.10;99.90;;;;;;5046836;28;20036;-73
2022/06/30 13:19:17;;;;;;;6.28;3.30;;;12.10;99.90;;;;;;5056427;28;20033;-72
2022/06/30 13:21:48;;;;;;;3.80;3.00;;;12.10;99.90;;;;;;5044088;28;20029;-72